Big Trout Lake, Canada
Current Conditions -  °F | °C
As of 8:00 PM on Friday 19 Dec 2014 (Local Time) from CYTL Reporting Station
Light Snow Light Snow  
Wind Chill:   Ceiling: 700
Heat Index: 16°   Visibility: 9mi
Dew Point: 16°   Wind: 7mph
Humidity: 100%   Direction: 240°WSW
Pressure: 30.14"   Gusts: NA
Location:  53.77°N, 90.02°W
Report Text: CYTL 200100Z AUTO 24006KT 9SM -SN OVC007 M09/M09 A3014 RMK SLP232
Loading
Personal Weather Stations






























Interactive Weather Map New forecast layout! Learn more

10-Day Weather Forecast

Advertisements
Track Severe Weather on mobile